Login to view Products
 
Tuesday, June 15, 2021 (16:23 UTC) 16
Sharjah International Airport
ICAO: OMSJ
IATA: SHJ
  • METAR OMSJ 151630Z 26007KT CAVOK 35/19 Q0996 NOSIG=
  • TAF OMSJ 151100Z 1512/1618 28013KT 8000 NSC BECMG 1515/1517 18005KT BECMG 1606/1608 30010KT=

2